createdAt,value
2022-10-21T00:02:00.366Z,10.33
2022-10-21T00:17:08.349Z,10.03
2022-10-21T00:32:14.530Z,9.10
2022-10-21T00:47:31.401Z,10.73
2022-10-21T01:02:35.807Z,10.00
2022-10-21T01:17:56.640Z,10.20
2022-10-21T01:33:27.388Z,10.50
2022-10-21T02:05:50.534Z,15.00
2022-10-21T02:37:32.380Z,16.10
2022-10-21T02:53:19.078Z,15.70
2022-10-21T03:08:44.778Z,11.50
2022-10-21T03:24:28.433Z,16.10
2022-10-21T03:39:37.689Z,14.53
2022-10-21T03:55:11.653Z,17.63
2022-10-21T04:10:51.961Z,17.10
2022-10-21T04:26:39.678Z,17.37
2022-10-21T05:45:09.822Z,19.87
2022-10-21T06:49:37.270Z,19.03
2022-10-21T07:05:00.968Z,23.13
2022-10-21T07:20:08.614Z,16.77
2022-10-21T07:51:17.748Z,16.57
2022-10-21T08:06:22.723Z,15.57
2022-10-21T08:21:28.835Z,15.77
2022-10-21T08:36:34.640Z,17.50
2022-10-21T08:51:43.340Z,16.73
2022-10-21T09:06:53.190Z,18.07
2022-10-21T09:22:33.254Z,17.67
2022-10-21T09:37:36.284Z,16.57
2022-10-21T09:52:41.244Z,17.40
2022-10-21T10:07:46.001Z,15.40
2022-10-21T10:22:59.417Z,17.50
2022-10-21T10:38:04.926Z,18.00
2022-10-21T10:53:12.433Z,14.27
2022-10-21T11:08:40.360Z,14.67
2022-10-21T11:23:57.859Z,16.60
2022-10-21T11:39:05.097Z,16.77
2022-10-21T11:54:22.959Z,13.93
2022-10-21T12:09:41.377Z,14.90
2022-10-21T12:24:50.935Z,17.20
2022-10-21T12:40:12.306Z,14.60
2022-10-21T12:55:27.276Z,15.03
2022-10-21T13:10:32.942Z,12.70
2022-10-21T13:25:42.301Z,16.90
2022-10-21T13:40:52.525Z,15.70
2022-10-21T13:56:07.993Z,16.40
2022-10-21T14:12:45.212Z,15.23
2022-10-21T14:44:29.477Z,14.93
2022-10-21T15:00:29.241Z,19.97
2022-10-21T15:32:30.488Z,17.70
2022-10-21T16:04:22.989Z,18.40
2022-10-21T16:35:23.575Z,22.63
2022-10-21T16:51:17.296Z,21.50
2022-10-21T17:07:01.302Z,24.13
2022-10-21T17:22:33.754Z,29.30
2022-10-21T17:54:00.228Z,31.17
2022-10-21T18:56:40.221Z,40.70
2022-10-21T19:27:43.532Z,38.03
2022-10-21T19:42:53.093Z,35.23
2022-10-21T19:58:03.552Z,36.47
2022-10-21T20:13:20.683Z,29.50
2022-10-21T20:28:59.898Z,32.97
2022-10-21T20:44:14.281Z,33.57
2022-10-21T20:59:44.588Z,29.80
2022-10-21T21:15:35.573Z,33.37
2022-10-21T21:31:05.657Z,31.30
2022-10-21T21:46:30.059Z,30.07
2022-10-21T22:01:44.345Z,33.40
2022-10-21T22:17:01.381Z,30.63
2022-10-21T22:32:17.974Z,28.60
2022-10-21T22:47:53.101Z,25.57
2022-10-21T23:03:07.438Z,26.83
2022-10-21T23:18:24.262Z,25.13
2022-10-21T23:33:47.649Z,24.27
2022-10-21T23:49:04.751Z,20.27
